sensor_id;sensor_type;location;lat;lon;timestamp;P1;durP1;ratioP1;P2;durP2;ratioP2
16450;SDS011;12243;42.708;23.310;2022-08-02T00:00:00;2.58;;;2.38;;
16450;SDS011;12243;42.708;23.310;2022-08-02T00:02:27;2.92;;;2.47;;
16450;SDS011;12243;42.708;23.310;2022-08-02T00:04:55;4.55;;;2.83;;
16450;SDS011;12243;42.708;23.310;2022-08-02T00:07:22;2.30;;;2.20;;
16450;SDS011;12243;42.708;23.310;2022-08-02T00:09:49;3.20;;;2.97;;
16450;SDS011;12243;42.708;23.310;2022-08-02T00:12:16;3.53;;;2.55;;
16450;SDS011;12243;42.708;23.310;2022-08-02T00:14:43;3.50;;;2.60;;
16450;SDS011;12243;42.708;23.310;2022-08-02T00:17:10;5.25;;;2.97;;
16450;SDS011;12243;42.708;23.310;2022-08-02T00:19:37;3.55;;;2.45;;
16450;SDS011;12243;42.708;23.310;2022-08-02T00:22:05;2.70;;;2.50;;
16450;SDS011;12243;42.708;23.310;2022-08-02T00:24:32;3.35;;;1.90;;
16450;SDS011;12243;42.708;23.310;2022-08-02T00:26:59;2.22;;;1.90;;
16450;SDS011;12243;42.708;23.310;2022-08-02T00:29:28;2.75;;;2.55;;
16450;SDS011;12243;42.708;23.310;2022-08-02T00:31:55;3.10;;;2.53;;
16450;SDS011;12243;42.708;23.310;2022-08-02T00:34:22;2.45;;;2.35;;
16450;SDS011;12243;42.708;23.310;2022-08-02T00:36:49;3.47;;;2.45;;
16450;SDS011;12243;42.708;23.310;2022-08-02T00:39:17;2.47;;;2.30;;
16450;SDS011;12243;42.708;23.310;2022-08-02T00:41:44;2.15;;;2.05;;
16450;SDS011;12243;42.708;23.310;2022-08-02T00:44:13;2.83;;;2.33;;
16450;SDS011;12243;42.708;23.310;2022-08-02T00:46:40;3.28;;;2.50;;
16450;SDS011;12243;42.708;23.310;2022-08-02T00:49:07;2.28;;;2.17;;
16450;SDS011;12243;42.708;23.310;2022-08-02T00:51:34;2.30;;;2.20;;
16450;SDS011;12243;42.708;23.310;2022-08-02T00:54:01;3.22;;;2.08;;
16450;SDS011;12243;42.708;23.310;2022-08-02T00:56:30;2.97;;;2.50;;
16450;SDS011;12243;42.708;23.310;2022-08-02T00:58:57;2.47;;;2.30;;
16450;SDS011;12243;42.708;23.310;2022-08-02T01:01:24;3.20;;;2.30;;
16450;SDS011;12243;42.708;23.310;2022-08-02T01:04:03;3.10;;;2.80;;
16450;SDS011;12243;42.708;23.310;2022-08-02T01:06:30;4.40;;;2.30;;
16450;SDS011;12243;42.708;23.310;2022-08-02T01:08:58;2.72;;;2.00;;
16450;SDS011;12243;42.708;23.310;2022-08-02T01:11:25;2.70;;;2.50;;
16450;SDS011;12243;42.708;23.310;2022-08-02T01:13:54;2.58;;;2.40;;
16450;SDS011;12243;42.708;23.310;2022-08-02T01:16:24;2.13;;;2.03;;
16450;SDS011;12243;42.708;23.310;2022-08-02T01:18:55;2.60;;;2.40;;
16450;SDS011;12243;42.708;23.310;2022-08-02T01:21:38;2.22;;;2.13;;
16450;SDS011;12243;42.708;23.310;2022-08-02T01:24:17;2.35;;;2.20;;
16450;SDS011;12243;42.708;23.310;2022-08-02T01:26:51;4.03;;;2.60;;
16450;SDS011;12243;42.708;23.310;2022-08-02T01:29:28;2.47;;;2.28;;
16450;SDS011;12243;42.708;23.310;2022-08-02T01:31:58;2.65;;;2.45;;
16450;SDS011;12243;42.708;23.310;2022-08-02T01:34:32;2.70;;;2.50;;
16450;SDS011;12243;42.708;23.310;2022-08-02T01:37:06;2.38;;;2.28;;
16450;SDS011;12243;42.708;23.310;2022-08-02T01:39:36;2.53;;;2.42;;
16450;SDS011;12243;42.708;23.310;2022-08-02T01:42:06;2.80;;;2.70;;
16450;SDS011;12243;42.708;23.310;2022-08-02T01:44:35;2.80;;;2.60;;
16450;SDS011;12243;42.708;23.310;2022-08-02T01:47:06;3.35;;;2.58;;
16450;SDS011;12243;42.708;23.310;2022-08-02T01:49:35;2.85;;;2.60;;
16450;SDS011;12243;42.708;23.310;2022-08-02T01:52:05;3.30;;;2.70;;
16450;SDS011;12243;42.708;23.310;2022-08-02T01:54:49;2.63;;;2.50;;
16450;SDS011;12243;42.708;23.310;2022-08-02T01:57:22;3.72;;;2.60;;
16450;SDS011;12243;42.708;23.310;2022-08-02T01:59:53;2.60;;;2.40;;
16450;SDS011;12243;42.708;23.310;2022-08-02T02:02:24;3.67;;;2.67;;
16450;SDS011;12243;42.708;23.310;2022-08-02T02:04:54;7.57;;;2.88;;
16450;SDS011;12243;42.708;23.310;2022-08-02T02:07:23;2.65;;;2.40;;
16450;SDS011;12243;42.708;23.310;2022-08-02T02:09:50;2.30;;;2.20;;
16450;SDS011;12243;42.708;23.310;2022-08-02T02:12:19;2.60;;;2.50;;
16450;SDS011;12243;42.708;23.310;2022-08-02T02:14:49;3.03;;;2.72;;
16450;SDS011;12243;42.708;23.310;2022-08-02T02:17:18;2.50;;;2.30;;
16450;SDS011;12243;42.708;23.310;2022-08-02T02:19:46;2.83;;;2.60;;
16450;SDS011;12243;42.708;23.310;2022-08-02T02:22:14;3.10;;;2.90;;
16450;SDS011;12243;42.708;23.310;2022-08-02T02:24:41;2.70;;;2.50;;
16450;SDS011;12243;42.708;23.310;2022-08-02T02:27:08;4.60;;;2.63;;
16450;SDS011;12243;42.708;23.310;2022-08-02T02:29:40;3.03;;;2.83;;
16450;SDS011;12243;42.708;23.310;2022-08-02T02:32:09;2.72;;;2.63;;
16450;SDS011;12243;42.708;23.310;2022-08-02T02:34:41;3.00;;;2.70;;
16450;SDS011;12243;42.708;23.310;2022-08-02T02:37:11;2.78;;;2.58;;
16450;SDS011;12243;42.708;23.310;2022-08-02T02:39:47;2.38;;;2.17;;
16450;SDS011;12243;42.708;23.310;2022-08-02T02:42:17;3.00;;;2.35;;
16450;SDS011;12243;42.708;23.310;2022-08-02T02:44:45;2.83;;;2.50;;
16450;SDS011;12243;42.708;23.310;2022-08-02T02:47:13;3.03;;;2.65;;
16450;SDS011;12243;42.708;23.310;2022-08-02T02:49:44;2.20;;;2.10;;
16450;SDS011;12243;42.708;23.310;2022-08-02T02:52:13;3.38;;;2.60;;
16450;SDS011;12243;42.708;23.310;2022-08-02T02:54:41;2.35;;;2.25;;
16450;SDS011;12243;42.708;23.310;2022-08-02T02:57:10;2.63;;;2.50;;
16450;SDS011;12243;42.708;23.310;2022-08-02T02:59:38;2.58;;;2.47;;
16450;SDS011;12243;42.708;23.310;2022-08-02T03:02:05;2.65;;;2.45;;
16450;SDS011;12243;42.708;23.310;2022-08-02T03:04:33;2.75;;;2.50;;
16450;SDS011;12243;42.708;23.310;2022-08-02T03:07:02;3.85;;;2.63;;
16450;SDS011;12243;42.708;23.310;2022-08-02T03:09:29;2.88;;;2.60;;
16450;SDS011;12243;42.708;23.310;2022-08-02T03:11:56;3.17;;;2.55;;
16450;SDS011;12243;42.708;23.310;2022-08-02T03:14:23;4.53;;;2.35;;
16450;SDS011;12243;42.708;23.310;2022-08-02T03:16:51;2.67;;;2.45;;
16450;SDS011;12243;42.708;23.310;2022-08-02T03:19:19;2.58;;;2.47;;
16450;SDS011;12243;42.708;23.310;2022-08-02T03:21:49;2.78;;;2.67;;
16450;SDS011;12243;42.708;23.310;2022-08-02T03:24:17;3.17;;;2.90;;
16450;SDS011;12243;42.708;23.310;2022-08-02T03:26:44;4.35;;;3.00;;
16450;SDS011;12243;42.708;23.310;2022-08-02T03:29:12;5.65;;;2.85;;
16450;SDS011;12243;42.708;23.310;2022-08-02T03:31:39;3.35;;;2.60;;
16450;SDS011;12243;42.708;23.310;2022-08-02T03:34:09;3.75;;;3.20;;
16450;SDS011;12243;42.708;23.310;2022-08-02T03:36:36;3.28;;;2.95;;
16450;SDS011;12243;42.708;23.310;2022-08-02T03:39:04;2.80;;;2.70;;
16450;SDS011;12243;42.708;23.310;2022-08-02T03:41:34;5.43;;;3.40;;
16450;SDS011;12243;42.708;23.310;2022-08-02T03:44:03;3.08;;;2.88;;
16450;SDS011;12243;42.708;23.310;2022-08-02T03:46:31;5.38;;;3.00;;
16450;SDS011;12243;42.708;23.310;2022-08-02T03:48:59;9.23;;;3.97;;
16450;SDS011;12243;42.708;23.310;2022-08-02T03:51:27;3.72;;;3.20;;
16450;SDS011;12243;42.708;23.310;2022-08-02T03:53:54;5.03;;;3.25;;
16450;SDS011;12243;42.708;23.310;2022-08-02T03:56:22;4.50;;;2.97;;
16450;SDS011;12243;42.708;23.310;2022-08-02T03:58:51;4.70;;;3.20;;
16450;SDS011;12243;42.708;23.310;2022-08-02T04:01:31;5.38;;;3.33;;
16450;SDS011;12243;42.708;23.310;2022-08-02T04:03:57;9.85;;;3.30;;
16450;SDS011;12243;42.708;23.310;2022-08-02T04:06:24;10.05;;;3.55;;
16450;SDS011;12243;42.708;23.310;2022-08-02T04:08:51;7.38;;;3.50;;
16450;SDS011;12243;42.708;23.310;2022-08-02T04:11:18;6.57;;;3.35;;
16450;SDS011;12243;42.708;23.310;2022-08-02T04:13:58;4.30;;;3.08;;
16450;SDS011;12243;42.708;23.310;2022-08-02T04:16:32;8.23;;;3.97;;
16450;SDS011;12243;42.708;23.310;2022-08-02T04:19:08;5.35;;;3.10;;
16450;SDS011;12243;42.708;23.310;2022-08-02T04:21:39;6.78;;;3.17;;
16450;SDS011;12243;42.708;23.310;2022-08-02T04:24:08;7.05;;;3.53;;
16450;SDS011;12243;42.708;23.310;2022-08-02T04:26:37;5.80;;;4.53;;
16450;SDS011;12243;42.708;23.310;2022-08-02T04:29:09;3.53;;;3.22;;
16450;SDS011;12243;42.708;23.310;2022-08-02T04:31:38;6.97;;;3.65;;
16450;SDS011;12243;42.708;23.310;2022-08-02T04:34:07;6.03;;;3.40;;
16450;SDS011;12243;42.708;23.310;2022-08-02T04:36:34;13.88;;;3.63;;
16450;SDS011;12243;42.708;23.310;2022-08-02T04:39:01;8.57;;;3.80;;
16450;SDS011;12243;42.708;23.310;2022-08-02T04:41:38;6.65;;;3.80;;
16450;SDS011;12243;42.708;23.310;2022-08-02T04:44:06;8.52;;;3.83;;
16450;SDS011;12243;42.708;23.310;2022-08-02T04:46:35;8.38;;;3.53;;
16450;SDS011;12243;42.708;23.310;2022-08-02T04:49:02;9.10;;;3.88;;
16450;SDS011;12243;42.708;23.310;2022-08-02T04:51:29;4.15;;;3.75;;
16450;SDS011;12243;42.708;23.310;2022-08-02T04:53:56;6.28;;;3.58;;
16450;SDS011;12243;42.708;23.310;2022-08-02T04:56:23;7.15;;;3.65;;
16450;SDS011;12243;42.708;23.310;2022-08-02T04:58:49;9.02;;;3.70;;
16450;SDS011;12243;42.708;23.310;2022-08-02T05:01:18;6.25;;;3.25;;
16450;SDS011;12243;42.708;23.310;2022-08-02T05:03:46;10.45;;;3.83;;
16450;SDS011;12243;42.708;23.310;2022-08-02T05:06:13;14.73;;;3.65;;
16450;SDS011;12243;42.708;23.310;2022-08-02T05:08:40;9.07;;;4.03;;
16450;SDS011;12243;42.708;23.310;2022-08-02T05:11:07;7.00;;;3.58;;
16450;SDS011;12243;42.708;23.310;2022-08-02T05:13:34;7.35;;;3.88;;
16450;SDS011;12243;42.708;23.310;2022-08-02T05:16:01;14.23;;;4.28;;
16450;SDS011;12243;42.708;23.310;2022-08-02T05:18:28;9.23;;;4.07;;
16450;SDS011;12243;42.708;23.310;2022-08-02T05:20:57;7.32;;;3.70;;
16450;SDS011;12243;42.708;23.310;2022-08-02T05:23:24;6.53;;;3.65;;
16450;SDS011;12243;42.708;23.310;2022-08-02T05:25:51;10.10;;;4.13;;
16450;SDS011;12243;42.708;23.310;2022-08-02T05:28:17;5.82;;;4.03;;
16450;SDS011;12243;42.708;23.310;2022-08-02T05:30:44;7.32;;;3.83;;
16450;SDS011;12243;42.708;23.310;2022-08-02T05:33:11;6.35;;;3.63;;
16450;SDS011;12243;42.708;23.310;2022-08-02T05:35:38;9.95;;;3.72;;
16450;SDS011;12243;42.708;23.310;2022-08-02T05:38:07;12.15;;;4.32;;
16450;SDS011;12243;42.708;23.310;2022-08-02T05:40:34;4.97;;;4.45;;
16450;SDS011;12243;42.708;23.310;2022-08-02T05:43:01;7.50;;;4.10;;
16450;SDS011;12243;42.708;23.310;2022-08-02T05:45:32;4.03;;;3.78;;
16450;SDS011;12243;42.708;23.310;2022-08-02T05:47:59;8.90;;;4.20;;
16450;SDS011;12243;42.708;23.310;2022-08-02T05:50:26;4.50;;;4.05;;
16450;SDS011;12243;42.708;23.310;2022-08-02T05:52:56;6.55;;;4.40;;
16450;SDS011;12243;42.708;23.310;2022-08-02T05:55:33;6.50;;;3.85;;
16450;SDS011;12243;42.708;23.310;2022-08-02T05:58:05;7.30;;;4.30;;
16450;SDS011;12243;42.708;23.310;2022-08-02T06:00:38;6.35;;;4.28;;
16450;SDS011;12243;42.708;23.310;2022-08-02T06:03:13;6.57;;;4.32;;
16450;SDS011;12243;42.708;23.310;2022-08-02T06:05:48;5.32;;;3.90;;
16450;SDS011;12243;42.708;23.310;2022-08-02T06:08:19;10.38;;;4.20;;
16450;SDS011;12243;42.708;23.310;2022-08-02T06:10:48;11.18;;;4.65;;
16450;SDS011;12243;42.708;23.310;2022-08-02T06:13:19;12.50;;;4.78;;
16450;SDS011;12243;42.708;23.310;2022-08-02T06:15:46;8.50;;;4.53;;
16450;SDS011;12243;42.708;23.310;2022-08-02T06:18:17;10.27;;;4.38;;
16450;SDS011;12243;42.708;23.310;2022-08-02T06:20:45;4.63;;;4.22;;
16450;SDS011;12243;42.708;23.310;2022-08-02T06:23:15;5.47;;;4.55;;
16450;SDS011;12243;42.708;23.310;2022-08-02T06:25:43;10.05;;;4.82;;
16450;SDS011;12243;42.708;23.310;2022-08-02T06:28:13;3.13;;;2.80;;
16450;SDS011;12243;42.708;23.310;2022-08-02T06:30:42;4.45;;;3.80;;
16450;SDS011;12243;42.708;23.310;2022-08-02T06:33:10;12.82;;;4.30;;
16450;SDS011;12243;42.708;23.310;2022-08-02T06:35:39;6.25;;;2.70;;
16450;SDS011;12243;42.708;23.310;2022-08-02T06:38:11;4.10;;;2.50;;
16450;SDS011;12243;42.708;23.310;2022-08-02T06:40:45;2.72;;;2.60;;
16450;SDS011;12243;42.708;23.310;2022-08-02T06:43:19;3.58;;;3.00;;
16450;SDS011;12243;42.708;23.310;2022-08-02T06:45:49;4.60;;;3.10;;
16450;SDS011;12243;42.708;23.310;2022-08-02T06:48:16;4.07;;;2.53;;
16450;SDS011;12243;42.708;23.310;2022-08-02T06:50:43;2.90;;;2.70;;
16450;SDS011;12243;42.708;23.310;2022-08-02T06:53:10;4.38;;;2.28;;
16450;SDS011;12243;42.708;23.310;2022-08-02T06:55:37;2.40;;;2.22;;
16450;SDS011;12243;42.708;23.310;2022-08-02T06:58:04;2.80;;;2.60;;
16450;SDS011;12243;42.708;23.310;2022-08-02T07:00:32;3.05;;;2.75;;
16450;SDS011;12243;42.708;23.310;2022-08-02T07:02:59;2.47;;;2.38;;
16450;SDS011;12243;42.708;23.310;2022-08-02T07:05:26;2.42;;;2.30;;
16450;SDS011;12243;42.708;23.310;2022-08-02T07:07:53;2.53;;;2.33;;
16450;SDS011;12243;42.708;23.310;2022-08-02T07:10:21;3.05;;;2.50;;
16450;SDS011;12243;42.708;23.310;2022-08-02T07:12:48;2.35;;;2.25;;
16450;SDS011;12243;42.708;23.310;2022-08-02T07:15:15;3.13;;;2.53;;
16450;SDS011;12243;42.708;23.310;2022-08-02T07:17:43;2.20;;;1.98;;
16450;SDS011;12243;42.708;23.310;2022-08-02T07:20:10;2.10;;;2.00;;
16450;SDS011;12243;42.708;23.310;2022-08-02T07:22:37;4.60;;;2.10;;
16450;SDS011;12243;42.708;23.310;2022-08-02T07:25:05;2.97;;;1.90;;
16450;SDS011;12243;42.708;23.310;2022-08-02T07:27:32;2.20;;;2.10;;
16450;SDS011;12243;42.708;23.310;2022-08-02T07:29:59;2.00;;;1.90;;
16450;SDS011;12243;42.708;23.310;2022-08-02T07:32:27;4.93;;;2.40;;
16450;SDS011;12243;42.708;23.310;2022-08-02T07:34:57;2.38;;;2.28;;
16450;SDS011;12243;42.708;23.310;2022-08-02T07:37:26;5.03;;;2.42;;
16450;SDS011;12243;42.708;23.310;2022-08-02T07:39:54;4.05;;;2.25;;
16450;SDS011;12243;42.708;23.310;2022-08-02T07:42:20;2.05;;;1.90;;
16450;SDS011;12243;42.708;23.310;2022-08-02T07:44:48;3.67;;;2.47;;
16450;SDS011;12243;42.708;23.310;2022-08-02T07:47:15;3.17;;;1.98;;
16450;SDS011;12243;42.708;23.310;2022-08-02T07:49:41;2.72;;;2.53;;
16450;SDS011;12243;42.708;23.310;2022-08-02T07:52:10;9.25;;;3.00;;
16450;SDS011;12243;42.708;23.310;2022-08-02T07:54:37;2.65;;;2.40;;
16450;SDS011;12243;42.708;23.310;2022-08-02T07:57:03;2.88;;;2.22;;
16450;SDS011;12243;42.708;23.310;2022-08-02T07:59:30;1.95;;;1.88;;
16450;SDS011;12243;42.708;23.310;2022-08-02T08:01:57;2.58;;;2.40;;
16450;SDS011;12243;42.708;23.310;2022-08-02T08:04:24;6.53;;;2.05;;
16450;SDS011;12243;42.708;23.310;2022-08-02T08:06:51;4.20;;;2.42;;
16450;SDS011;12243;42.708;23.310;2022-08-02T08:09:21;2.20;;;2.10;;
16450;SDS011;12243;42.708;23.310;2022-08-02T08:11:47;2.15;;;1.95;;
16450;SDS011;12243;42.708;23.310;2022-08-02T08:14:14;1.80;;;1.70;;
16450;SDS011;12243;42.708;23.310;2022-08-02T08:16:41;1.92;;;1.80;;
16450;SDS011;12243;42.708;23.310;2022-08-02T08:19:08;1.85;;;1.75;;
16450;SDS011;12243;42.708;23.310;2022-08-02T08:21:35;2.08;;;1.85;;
16450;SDS011;12243;42.708;23.310;2022-08-02T08:24:02;1.80;;;1.70;;
16450;SDS011;12243;42.708;23.310;2022-08-02T08:26:30;2.03;;;1.90;;
16450;SDS011;12243;42.708;23.310;2022-08-02T08:28:57;2.80;;;2.13;;
16450;SDS011;12243;42.708;23.310;2022-08-02T08:31:26;1.83;;;1.80;;
16450;SDS011;12243;42.708;23.310;2022-08-02T08:33:52;10.48;;;2.13;;
16450;SDS011;12243;42.708;23.310;2022-08-02T08:36:21;4.10;;;2.10;;
16450;SDS011;12243;42.708;23.310;2022-08-02T08:38:48;3.67;;;3.42;;
16450;SDS011;12243;42.708;23.310;2022-08-02T08:41:15;2.00;;;1.90;;
16450;SDS011;12243;42.708;23.310;2022-08-02T08:43:43;2.15;;;1.88;;
16450;SDS011;12243;42.708;23.310;2022-08-02T08:46:12;2.08;;;1.88;;
16450;SDS011;12243;42.708;23.310;2022-08-02T08:48:55;1.88;;;1.77;;
16450;SDS011;12243;42.708;23.310;2022-08-02T08:51:27;1.92;;;1.85;;
16450;SDS011;12243;42.708;23.310;2022-08-02T08:53:57;4.30;;;1.70;;
16450;SDS011;12243;42.708;23.310;2022-08-02T08:56:28;2.08;;;1.98;;
16450;SDS011;12243;42.708;23.310;2022-08-02T08:59:01;3.13;;;1.60;;
16450;SDS011;12243;42.708;23.310;2022-08-02T09:01:29;5.38;;;1.70;;
16450;SDS011;12243;42.708;23.310;2022-08-02T09:03:56;3.22;;;2.10;;
16450;SDS011;12243;42.708;23.310;2022-08-02T09:06:23;1.80;;;1.70;;
16450;SDS011;12243;42.708;23.310;2022-08-02T09:08:51;1.60;;;1.50;;
16450;SDS011;12243;42.708;23.310;2022-08-02T09:11:18;3.80;;;1.90;;
16450;SDS011;12243;42.708;23.310;2022-08-02T09:13:50;2.97;;;2.13;;
16450;SDS011;12243;42.708;23.310;2022-08-02T09:19:18;2.15;;;1.75;;
16450;SDS011;12243;42.708;23.310;2022-08-02T09:21:47;2.03;;;1.70;;
16450;SDS011;12243;42.708;23.310;2022-08-02T09:24:15;2.40;;;2.20;;
16450;SDS011;12243;42.708;23.310;2022-08-02T09:26:43;2.40;;;1.67;;
16450;SDS011;12243;42.708;23.310;2022-08-02T09:29:10;2.05;;;1.50;;
16450;SDS011;12243;42.708;23.310;2022-08-02T09:31:38;2.08;;;1.77;;
16450;SDS011;12243;42.708;23.310;2022-08-02T09:34:06;2.15;;;1.58;;
16450;SDS011;12243;42.708;23.310;2022-08-02T09:36:38;1.88;;;1.77;;
16450;SDS011;12243;42.708;23.310;2022-08-02T09:39:08;1.80;;;1.70;;
16450;SDS011;12243;42.708;23.310;2022-08-02T09:41:36;1.55;;;1.52;;
16450;SDS011;12243;42.708;23.310;2022-08-02T09:44:05;2.60;;;1.70;;
16450;SDS011;12243;42.708;23.310;2022-08-02T09:46:34;3.90;;;1.70;;
16450;SDS011;12243;42.708;23.310;2022-08-02T09:49:05;3.28;;;1.90;;
16450;SDS011;12243;42.708;23.310;2022-08-02T09:51:34;2.03;;;2.03;;
16450;SDS011;12243;42.708;23.310;2022-08-02T09:54:03;3.90;;;1.70;;
16450;SDS011;12243;42.708;23.310;2022-08-02T09:56:42;2.05;;;1.88;;
16450;SDS011;12243;42.708;23.310;2022-08-02T09:59:10;1.80;;;1.42;;
16450;SDS011;12243;42.708;23.310;2022-08-02T10:01:37;2.42;;;1.50;;
16450;SDS011;12243;42.708;23.310;2022-08-02T10:04:06;2.28;;;1.50;;
16450;SDS011;12243;42.708;23.310;2022-08-02T10:06:35;1.52;;;1.52;;
16450;SDS011;12243;42.708;23.310;2022-08-02T10:09:03;1.10;;;1.10;;
16450;SDS011;12243;42.708;23.310;2022-08-02T10:11:31;1.20;;;1.15;;
16450;SDS011;12243;42.708;23.310;2022-08-02T10:13:59;1.67;;;1.42;;
16450;SDS011;12243;42.708;23.310;2022-08-02T10:16:27;1.20;;;1.20;;
16450;SDS011;12243;42.708;23.310;2022-08-02T10:18:55;1.20;;;1.20;;
16450;SDS011;12243;42.708;23.310;2022-08-02T10:21:27;1.73;;;1.63;;
16450;SDS011;12243;42.708;23.310;2022-08-02T10:23:59;1.73;;;1.42;;
16450;SDS011;12243;42.708;23.310;2022-08-02T10:26:32;1.58;;;1.58;;
16450;SDS011;12243;42.708;23.310;2022-08-02T10:28:59;2.28;;;1.70;;
16450;SDS011;12243;42.708;23.310;2022-08-02T10:31:27;1.40;;;1.30;;
16450;SDS011;12243;42.708;23.310;2022-08-02T10:33:59;1.60;;;1.50;;
16450;SDS011;12243;42.708;23.310;2022-08-02T10:36:30;1.45;;;1.40;;
16450;SDS011;12243;42.708;23.310;2022-08-02T10:39:00;2.65;;;1.40;;
16450;SDS011;12243;42.708;23.310;2022-08-02T10:41:38;1.60;;;1.30;;
16450;SDS011;12243;42.708;23.310;2022-08-02T10:44:06;1.20;;;1.20;;
16450;SDS011;12243;42.708;23.310;2022-08-02T10:46:33;1.30;;;1.30;;
16450;SDS011;12243;42.708;23.310;2022-08-02T10:49:04;1.80;;;1.40;;
16450;SDS011;12243;42.708;23.310;2022-08-02T10:54:31;1.60;;;1.17;;
16450;SDS011;12243;42.708;23.310;2022-08-02T10:57:00;1.25;;;1.25;;
16450;SDS011;12243;42.708;23.310;2022-08-02T10:59:28;1.35;;;1.25;;
16450;SDS011;12243;42.708;23.310;2022-08-02T11:01:56;1.80;;;1.70;;
16450;SDS011;12243;42.708;23.310;2022-08-02T11:04:28;1.52;;;1.42;;
16450;SDS011;12243;42.708;23.310;2022-08-02T11:07:07;2.72;;;1.52;;
16450;SDS011;12243;42.708;23.310;2022-08-02T11:09:36;1.65;;;1.40;;
16450;SDS011;12243;42.708;23.310;2022-08-02T11:12:04;1.50;;;1.40;;
16450;SDS011;12243;42.708;23.310;2022-08-02T11:14:33;1.30;;;1.30;;
16450;SDS011;12243;42.708;23.310;2022-08-02T11:17:08;1.65;;;1.20;;
16450;SDS011;12243;42.708;23.310;2022-08-02T11:22:43;2.08;;;1.98;;
16450;SDS011;12243;42.708;23.310;2022-08-02T11:28:07;1.42;;;1.33;;
16450;SDS011;12243;42.708;23.310;2022-08-02T11:30:37;1.30;;;1.30;;
16450;SDS011;12243;42.708;23.310;2022-08-02T11:33:04;1.20;;;1.20;;
16450;SDS011;12243;42.708;23.310;2022-08-02T11:35:35;1.35;;;1.33;;
16450;SDS011;12243;42.708;23.310;2022-08-02T11:38:15;1.50;;;1.45;;
16450;SDS011;12243;42.708;23.310;2022-08-02T11:40:44;1.15;;;1.15;;
16450;SDS011;12243;42.708;23.310;2022-08-02T11:43:15;1.73;;;1.10;;
16450;SDS011;12243;42.708;23.310;2022-08-02T11:45:43;1.33;;;1.30;;
16450;SDS011;12243;42.708;23.310;2022-08-02T11:48:10;1.73;;;1.10;;
16450;SDS011;12243;42.708;23.310;2022-08-02T11:50:37;2.05;;;1.17;;
16450;SDS011;12243;42.708;23.310;2022-08-02T11:53:11;2.75;;;1.08;;
16450;SDS011;12243;42.708;23.310;2022-08-02T11:55:40;1.27;;;1.27;;
16450;SDS011;12243;42.708;23.310;2022-08-02T11:58:08;1.10;;;1.10;;
16450;SDS011;12243;42.708;23.310;2022-08-02T12:00:35;2.83;;;1.20;;
16450;SDS011;12243;42.708;23.310;2022-08-02T12:03:03;1.20;;;1.20;;
16450;SDS011;12243;42.708;23.310;2022-08-02T12:05:31;2.15;;;1.42;;
16450;SDS011;12243;42.708;23.310;2022-08-02T12:07:57;2.60;;;1.40;;
16450;SDS011;12243;42.708;23.310;2022-08-02T12:10:24;1.35;;;1.33;;
16450;SDS011;12243;42.708;23.310;2022-08-02T12:12:53;0.93;;;0.93;;
16450;SDS011;12243;42.708;23.310;2022-08-02T12:15:31;1.20;;;1.20;;
16450;SDS011;12243;42.708;23.310;2022-08-02T12:18:00;1.42;;;1.00;;
16450;SDS011;12243;42.708;23.310;2022-08-02T12:20:44;2.92;;;1.15;;
16450;SDS011;12243;42.708;23.310;2022-08-02T12:23:12;1.10;;;1.10;;
16450;SDS011;12243;42.708;23.310;2022-08-02T12:25:39;1.23;;;1.10;;
16450;SDS011;12243;42.708;23.310;2022-08-02T12:28:17;1.70;;;1.17;;
16450;SDS011;12243;42.708;23.310;2022-08-02T12:30:53;1.40;;;1.30;;
16450;SDS011;12243;42.708;23.310;2022-08-02T12:33:22;1.23;;;1.23;;
16450;SDS011;12243;42.708;23.310;2022-08-02T12:35:51;2.05;;;1.40;;
16450;SDS011;12243;42.708;23.310;2022-08-02T12:38:18;1.10;;;1.10;;
16450;SDS011;12243;42.708;23.310;2022-08-02T12:40:45;1.50;;;1.20;;
16450;SDS011;12243;42.708;23.310;2022-08-02T12:43:17;3.15;;;2.95;;
16450;SDS011;12243;42.708;23.310;2022-08-02T12:45:46;2.60;;;2.50;;
16450;SDS011;12243;42.708;23.310;2022-08-02T12:48:15;4.80;;;3.10;;
16450;SDS011;12243;42.708;23.310;2022-08-02T12:50:43;2.92;;;1.80;;
16450;SDS011;12243;42.708;23.310;2022-08-02T12:53:11;1.33;;;1.30;;
16450;SDS011;12243;42.708;23.310;2022-08-02T12:55:46;2.85;;;1.63;;
16450;SDS011;12243;42.708;23.310;2022-08-02T12:58:15;2.40;;;1.05;;
16450;SDS011;12243;42.708;23.310;2022-08-02T13:00:50;1.80;;;1.67;;
16450;SDS011;12243;42.708;23.310;2022-08-02T13:03:18;1.00;;;1.00;;
16450;SDS011;12243;42.708;23.310;2022-08-02T13:05:45;1.35;;;1.35;;
16450;SDS011;12243;42.708;23.310;2022-08-02T13:08:12;2.75;;;1.80;;
16450;SDS011;12243;42.708;23.310;2022-08-02T13:10:39;1.73;;;1.40;;
16450;SDS011;12243;42.708;23.310;2022-08-02T13:13:09;1.17;;;1.17;;
16450;SDS011;12243;42.708;23.310;2022-08-02T13:15:36;1.52;;;1.52;;
16450;SDS011;12243;42.708;23.310;2022-08-02T13:18:05;1.42;;;1.40;;
16450;SDS011;12243;42.708;23.310;2022-08-02T13:20:32;1.35;;;1.35;;
16450;SDS011;12243;42.708;23.310;2022-08-02T13:22:58;1.70;;;1.70;;
16450;SDS011;12243;42.708;23.310;2022-08-02T13:25:25;1.80;;;1.70;;
16450;SDS011;12243;42.708;23.310;2022-08-02T13:27:52;1.38;;;1.35;;
16450;SDS011;12243;42.708;23.310;2022-08-02T13:30:19;2.65;;;1.40;;
16450;SDS011;12243;42.708;23.310;2022-08-02T13:32:46;1.33;;;1.33;;
16450;SDS011;12243;42.708;23.310;2022-08-02T13:35:14;1.98;;;1.30;;
16450;SDS011;12243;42.708;23.310;2022-08-02T13:37:41;4.05;;;1.98;;
16450;SDS011;12243;42.708;23.310;2022-08-02T13:40:09;2.72;;;1.65;;
16450;SDS011;12243;42.708;23.310;2022-08-02T13:42:36;1.42;;;1.42;;
16450;SDS011;12243;42.708;23.310;2022-08-02T13:45:03;2.50;;;2.38;;
16450;SDS011;12243;42.708;23.310;2022-08-02T13:47:30;1.73;;;1.63;;
16450;SDS011;12243;42.708;23.310;2022-08-02T13:49:57;1.40;;;1.40;;
16450;SDS011;12243;42.708;23.310;2022-08-02T13:52:25;1.40;;;1.40;;
16450;SDS011;12243;42.708;23.310;2022-08-02T13:54:52;1.40;;;1.40;;
16450;SDS011;12243;42.708;23.310;2022-08-02T13:57:19;3.47;;;1.55;;
16450;SDS011;12243;42.708;23.310;2022-08-02T13:59:46;1.92;;;1.70;;
16450;SDS011;12243;42.708;23.310;2022-08-02T14:02:13;2.15;;;2.00;;
16450;SDS011;12243;42.708;23.310;2022-08-02T14:04:39;1.30;;;1.30;;
16450;SDS011;12243;42.708;23.310;2022-08-02T14:07:06;1.60;;;1.50;;
16450;SDS011;12243;42.708;23.310;2022-08-02T14:09:34;1.75;;;1.65;;
16450;SDS011;12243;42.708;23.310;2022-08-02T14:12:01;2.30;;;1.30;;
16450;SDS011;12243;42.708;23.310;2022-08-02T14:14:28;2.15;;;1.95;;
16450;SDS011;12243;42.708;23.310;2022-08-02T14:16:55;1.40;;;1.40;;
16450;SDS011;12243;42.708;23.310;2022-08-02T14:19:22;1.48;;;1.48;;
16450;SDS011;12243;42.708;23.310;2022-08-02T14:21:50;3.35;;;2.50;;
16450;SDS011;12243;42.708;23.310;2022-08-02T14:24:18;4.40;;;4.00;;
16450;SDS011;12243;42.708;23.310;2022-08-02T14:26:47;2.40;;;2.20;;
16450;SDS011;12243;42.708;23.310;2022-08-02T14:29:15;1.75;;;1.70;;
16450;SDS011;12243;42.708;23.310;2022-08-02T14:31:43;1.40;;;1.40;;
16450;SDS011;12243;42.708;23.310;2022-08-02T14:34:10;16.50;;;13.27;;
16450;SDS011;12243;42.708;23.310;2022-08-02T14:36:37;7.82;;;7.05;;
16450;SDS011;12243;42.708;23.310;2022-08-02T14:39:04;2.15;;;2.05;;
16450;SDS011;12243;42.708;23.310;2022-08-02T14:41:31;14.23;;;12.20;;
16450;SDS011;12243;42.708;23.310;2022-08-02T14:44:02;7.78;;;5.40;;
16450;SDS011;12243;42.708;23.310;2022-08-02T14:46:29;2.80;;;2.63;;
16450;SDS011;12243;42.708;23.310;2022-08-02T14:48:56;2.67;;;2.20;;
16450;SDS011;12243;42.708;23.310;2022-08-02T14:51:26;3.25;;;1.30;;
16450;SDS011;12243;42.708;23.310;2022-08-02T14:53:53;3.85;;;1.70;;